Time;durP1;ratioP1;P1;durP2;ratioP2;P2;SDS_P1;SDS_P2;PMS_P1;PMS_P2;Temp;Humidity;BMP_temperature;BMP_pressure;BME280_temperature;BME280_humidity;BME280_pressure;Samples;Min_cycle;Max_cycle;Signal;HPM_P1;HPM_P2
2021/08/21 00:02:27;;;;;;;5.00;3.40;;;;;;;24.35;42.94;97533.66;115640;1188;68760;-56
2021/08/21 00:04:59;;;;;;;4.70;3.00;;;;;;;24.34;42.92;97534.89;115665;1188;58971;-53
2021/08/21 00:07:31;;;;;;;4.70;3.10;;;;;;;24.33;42.85;97533.24;115694;1188;58705;-56
2021/08/21 00:10:07;;;;;;;3.70;3.00;;;;;;;24.31;43.01;97529.16;115563;1189;69577;-56
2021/08/21 00:12:39;;;;;;;5.00;3.10;;;;;;;24.30;42.93;97527.34;115581;1189;68249;-53
2021/08/21 00:15:16;;;;;;;3.50;2.80;;;;;;;24.29;42.93;97527.14;115517;1189;69488;-57
2021/08/21 00:17:48;;;;;;;4.30;3.00;;;;;;;24.28;43.01;97528.73;115656;1188;58760;-56
2021/08/21 00:20:22;;;;;;;4.10;2.90;;;;;;;24.26;43.00;97527.08;115599;1187;59130;-55
2021/08/21 00:22:53;;;;;;;3.60;2.90;;;;;;;24.25;43.09;97527.43;115616;1188;70707;-56
2021/08/21 00:25:25;;;;;;;4.50;3.20;;;;;;;24.24;43.04;97525.63;115535;1189;68529;-52
2021/08/21 00:27:56;;;;;;;4.10;3.00;;;;;;;24.23;43.08;97525.65;115609;1189;69263;-55
2021/08/21 00:30:27;;;;;;;4.20;3.10;;;;;;;24.22;43.14;97523.80;115722;1188;58815;-57
2021/08/21 00:32:58;;;;;;;3.70;2.80;;;;;;;24.20;43.15;97527.02;115619;1188;58741;-51
2021/08/21 00:35:30;;;;;;;4.60;2.90;;;;;;;24.19;43.07;97530.39;115634;1189;69619;-54
2021/08/21 00:38:02;;;;;;;4.00;2.50;;;;;;;24.18;43.21;97530.52;115694;1188;68739;-51
2021/08/21 00:40:32;;;;;;;4.10;3.00;;;;;;;24.16;43.22;97532.13;115669;1189;69250;-54
2021/08/21 00:43:04;;;;;;;3.70;2.70;;;;;;;24.16;43.18;97530.65;115653;1188;58756;-54
2021/08/21 00:45:35;;;;;;;4.90;3.20;;;;;;;24.14;43.20;97534.92;115645;1190;58743;-51
2021/08/21 00:48:07;;;;;;;4.30;2.60;;;;;;;24.13;43.19;97532.39;115658;1189;70566;-50
2021/08/21 00:50:39;;;;;;;6.10;3.20;;;;;;;24.11;43.25;97530.45;115734;1185;68012;-50
2021/08/21 00:53:14;;;;;;;4.10;2.70;;;;;;;24.10;43.33;97531.56;115553;1186;69176;-54
2021/08/21 00:55:48;;;;;;;3.80;2.70;;;;;;;24.08;43.24;97529.97;115593;1189;58754;-56
2021/08/21 00:58:20;;;;;;;3.70;2.50;;;;;;;24.07;43.29;97528.98;115596;1189;58709;-52
2021/08/21 01:00:51;;;;;;;4.80;3.00;;;;;;;24.06;43.25;97530.21;115714;1188;70569;-48
2021/08/21 01:03:21;;;;;;;4.50;3.00;;;;;;;24.05;43.29;97534.44;115657;1188;68440;-54
2021/08/21 01:05:52;;;;;;;3.60;2.60;;;;;;;24.04;43.31;97532.27;115619;1188;69245;-50
2021/08/21 01:08:22;;;;;;;3.80;3.20;;;;;;;24.03;43.22;97532.60;115641;1185;58758;-49
2021/08/21 01:11:01;;;;;;;4.00;2.90;;;;;;;24.02;43.28;97531.13;115686;1188;58776;-53
2021/08/21 01:13:34;;;;;;;3.80;2.70;;;;;;;24.00;43.35;97533.46;115576;1189;70553;-50
2021/08/21 01:16:05;;;;;;;3.00;2.50;;;;;;;23.99;43.22;97529.35;115669;1184;69082;-54
2021/08/21 01:18:38;;;;;;;4.10;2.60;;;;;;;23.98;43.28;97533.35;115566;1189;69039;-50
2021/08/21 01:21:13;;;;;;;3.90;2.80;;;;;;;23.97;43.31;97533.34;115707;1185;58770;-52
2021/08/21 01:23:46;;;;;;;3.30;2.70;;;;;;;23.96;43.38;97530.96;115782;1185;58802;-49
2021/08/21 01:26:26;;;;;;;4.10;2.80;;;;;;;23.95;43.36;97531.13;115611;1188;69767;-55
2021/08/21 01:29:06;;;;;;;4.20;3.00;;;;;;;23.93;43.40;97531.50;115668;1189;68485;-57
2021/08/21 01:31:55;;;;;;;3.90;2.70;;;;;;;23.92;43.34;97530.60;115645;1188;68720;-53
2021/08/21 01:34:27;;;;;;;4.40;3.00;;;;;;;23.90;43.30;97531.49;115640;1188;58708;-53
2021/08/21 01:36:59;;;;;;;3.80;2.80;;;;;;;23.89;43.37;97526.84;115580;1187;58819;-48
2021/08/21 01:39:54;;;;;;;3.60;2.50;;;;;;;23.88;43.34;97528.77;115566;1189;70517;-54
2021/08/21 01:42:52;;;;;;;3.40;2.70;;;;;;;23.85;43.37;97526.81;115606;1190;69053;-54
2021/08/21 01:45:23;;;;;;;4.30;2.80;;;;;;;23.84;43.39;97524.61;115655;1185;69213;-51
2021/08/21 01:47:55;;;;;;;3.10;2.50;;;;;;;23.83;43.31;97526.00;115634;1188;58825;-53
2021/08/21 01:50:31;;;;;;;4.20;2.70;;;;;;;23.83;43.30;97528.02;115624;1188;58732;-50
2021/08/21 01:53:01;;;;;;;4.00;2.80;;;;;;;23.81;43.31;97522.55;115631;1188;70749;-51
2021/08/21 01:55:36;;;;;;;3.30;2.40;;;;;;;23.79;43.37;97518.08;115613;1189;68454;-48
2021/08/21 01:58:21;;;;;;;3.00;2.40;;;;;;;23.79;43.39;97525.48;115610;1189;68431;-50
2021/08/21 02:01:15;;;;;;;3.60;2.60;;;;;;;23.77;43.37;97525.92;115486;1189;58804;-54
2021/08/21 02:04:10;;;;;;;3.80;2.60;;;;;;;23.76;43.48;97528.63;115693;1188;58704;-49
2021/08/21 02:06:42;;;;;;;3.30;2.20;;;;;;;23.75;43.40;97527.83;115728;1186;69818;-50
2021/08/21 02:09:16;;;;;;;4.50;2.80;;;;;;;23.74;43.40;97527.48;115646;1190;69022;-55
2021/08/21 02:11:49;;;;;;;3.20;2.50;;;;;;;23.73;43.35;97521.77;115723;1188;69018;-51
2021/08/21 02:14:22;;;;;;;3.50;2.60;;;;;;;23.72;43.32;97527.40;115730;1188;58743;-53
2021/08/21 02:16:56;;;;;;;3.70;2.40;;;;;;;23.71;43.40;97526.97;115695;1187;59241;-52
2021/08/21 02:19:28;;;;;;;3.30;2.50;;;;;;;23.70;43.39;97529.05;115621;1190;70527;-54
2021/08/21 02:22:14;;;;;;;3.90;2.60;;;;;;;23.69;43.44;97529.34;115822;1188;68460;-54
2021/08/21 02:24:51;;;;;;;4.40;2.90;;;;;;;23.68;43.44;97525.77;115554;1187;69018;-49
2021/08/21 02:27:25;;;;;;;4.00;2.50;;;;;;;23.68;43.48;97529.73;115612;1189;58767;-52
2021/08/21 02:29:57;;;;;;;3.00;2.40;;;;;;;23.67;43.42;97527.15;115693;1187;58771;-53
2021/08/21 02:32:29;;;;;;;3.90;2.50;;;;;;;23.66;43.52;97524.75;115822;1182;70807;-51
2021/08/21 02:35:01;;;;;;;3.30;2.70;;;;;;;23.66;43.41;97528.36;115693;1188;69199;-51
2021/08/21 02:37:32;;;;;;;4.50;2.70;;;;;;;23.66;43.40;97528.68;115699;1188;68432;-51
2021/08/21 02:40:05;;;;;;;3.30;2.60;;;;;;;23.65;43.41;97526.71;115603;1188;58798;-50
2021/08/21 02:42:36;;;;;;;3.00;2.60;;;;;;;23.64;43.38;97525.20;115819;1187;58760;-53
2021/08/21 02:45:07;;;;;;;3.70;2.70;;;;;;;23.63;43.51;97528.11;115845;1182;69755;-53
2021/08/21 02:47:38;;;;;;;3.00;2.60;;;;;;;23.63;43.41;97523.02;115770;1185;67672;-53
2021/08/21 02:50:10;;;;;;;3.80;2.60;;;;;;;23.62;43.30;97522.92;115714;1187;68493;-54
2021/08/21 02:52:41;;;;;;;3.40;2.40;;;;;;;23.62;43.33;97522.63;115698;1186;58745;-53
2021/08/21 02:55:14;;;;;;;4.30;2.80;;;;;;;23.60;43.39;97518.02;115729;1188;58721;-51
2021/08/21 02:57:48;;;;;;;3.80;2.70;;;;;;;23.60;43.33;97521.62;115763;1187;69895;-51
2021/08/21 03:00:21;;;;;;;3.80;2.80;;;;;;;23.58;43.35;97524.13;115759;1188;68306;-53
2021/08/21 03:02:55;;;;;;;3.10;2.20;;;;;;;23.57;43.37;97524.66;115762;1187;69890;-51
2021/08/21 03:05:27;;;;;;;3.50;2.60;;;;;;;23.56;43.39;97526.01;115652;1184;58778;-50
2021/08/21 03:07:58;;;;;;;2.80;2.30;;;;;;;23.54;43.29;97524.65;115665;1189;58783;-53
2021/08/21 03:10:31;;;;;;;3.50;2.60;;;;;;;23.52;43.36;97523.27;115667;1188;70317;-48
2021/08/21 03:13:04;;;;;;;3.30;2.40;;;;;;;23.51;43.35;97526.95;115727;1187;67658;-50
2021/08/21 03:15:35;;;;;;;3.20;2.50;;;;;;;23.50;43.36;97527.44;115647;1187;68630;-54
2021/08/21 03:18:07;;;;;;;3.40;2.40;;;;;;;23.49;43.32;97535.04;115676;1188;58744;-54
2021/08/21 03:20:39;;;;;;;3.30;2.40;;;;;;;23.48;43.38;97534.11;115706;1187;58763;-51
2021/08/21 03:23:11;;;;;;;3.40;2.50;;;;;;;23.47;43.34;97532.09;115637;1188;69746;-54
2021/08/21 03:25:43;;;;;;;4.90;2.70;;;;;;;23.46;43.41;97535.89;115743;1185;68911;-54
2021/08/21 03:28:14;;;;;;;2.70;2.30;;;;;;;23.45;43.36;97544.05;115703;1188;69512;-55
2021/08/21 03:30:46;;;;;;;3.00;2.40;;;;;;;23.44;43.34;97549.34;115675;1188;58790;-52
2021/08/21 03:33:22;;;;;;;3.30;2.50;;;;;;;23.44;43.39;97547.30;115667;1185;58758;-52
2021/08/21 03:35:54;;;;;;;3.90;2.40;;;;;;;23.43;43.41;97551.49;115800;1188;69746;-55
2021/08/21 03:38:26;;;;;;;3.80;2.70;;;;;;;23.42;43.36;97550.50;115696;1188;69019;-52
2021/08/21 03:41:08;;;;;;;3.10;2.10;;;;;;;23.41;43.38;97556.85;115757;1186;68338;-51
2021/08/21 03:43:49;;;;;;;2.80;2.40;;;;;;;23.40;43.32;97557.71;115775;1188;58758;-53
2021/08/21 03:46:23;;;;;;;3.00;2.30;;;;;;;23.39;43.28;97558.52;115678;1186;58749;-53
2021/08/21 03:48:54;;;;;;;3.30;2.40;;;;;;;23.38;43.42;97561.42;115666;1188;70509;-51
2021/08/21 03:51:26;;;;;;;3.50;2.50;;;;;;;23.37;43.38;97559.45;115605;1184;68242;-56
2021/08/21 03:53:57;;;;;;;4.60;2.70;;;;;;;23.36;43.36;97563.46;115776;1188;68417;-53
2021/08/21 03:56:29;;;;;;;3.20;2.10;;;;;;;23.36;43.46;97565.30;115659;1187;58682;-53
2021/08/21 03:59:06;;;;;;;3.30;2.30;;;;;;;23.35;43.34;97569.32;115733;1187;58751;-54
2021/08/21 04:01:43;;;;;;;3.10;2.60;;;;;;;23.34;43.40;97572.45;115668;1188;70449;-51
2021/08/21 04:04:22;;;;;;;3.20;2.40;;;;;;;23.32;43.31;97570.51;115759;1187;68274;-54
2021/08/21 04:06:53;;;;;;;3.20;2.40;;;;;;;23.32;43.38;97573.22;115857;1187;69248;-55
2021/08/21 04:09:30;;;;;;;4.10;2.50;;;;;;;23.31;43.40;97576.86;115690;1188;58699;-52
2021/08/21 04:12:02;;;;;;;2.80;1.90;;;;;;;23.31;43.38;97578.37;115688;1185;58711;-53
2021/08/21 04:14:39;;;;;;;4.60;2.40;;;;;;;23.30;43.35;97581.08;115744;1188;70112;-53
2021/08/21 04:17:10;;;;;;;3.20;2.10;;;;;;;23.30;43.55;97580.41;115702;1188;68335;-51
2021/08/21 04:19:42;;;;;;;3.70;2.40;;;;;;;23.30;43.51;97576.35;115688;1188;68883;-52
2021/08/21 04:22:13;;;;;;;3.00;2.40;;;;;;;23.30;43.43;97577.39;115630;1188;58706;-53
2021/08/21 04:24:54;;;;;;;3.60;2.70;;;;;;;23.30;43.60;97579.27;115699;1188;58705;-51
2021/08/21 04:27:25;;;;;;;3.80;2.30;;;;;;;23.31;43.56;97577.23;115732;1185;70051;-49
2021/08/21 04:29:57;;;;;;;2.60;2.10;;;;;;;23.33;43.57;97581.77;115755;1187;69228;-53
2021/08/21 04:32:28;;;;;;;4.00;2.80;;;;;;;23.34;43.54;97582.39;115804;1187;69311;-54
2021/08/21 04:34:59;;;;;;;3.30;2.60;;;;;;;23.36;43.71;97585.16;115636;1188;58782;-54
2021/08/21 04:37:31;;;;;;;3.10;2.40;;;;;;;23.38;43.68;97587.93;115634;1187;58796;-48
2021/08/21 04:40:05;;;;;;;3.50;2.50;;;;;;;23.39;43.65;97586.55;115667;1187;70299;-52
2021/08/21 04:42:35;;;;;;;3.70;2.90;;;;;;;23.42;43.58;97586.29;115781;1188;68508;-52
2021/08/21 04:45:07;;;;;;;3.40;2.30;;;;;;;23.43;43.64;97586.30;115825;1187;69342;-53
2021/08/21 04:47:38;;;;;;;3.00;2.10;;;;;;;23.45;43.59;97585.02;115681;1188;58900;-52
2021/08/21 04:50:15;;;;;;;3.30;2.40;;;;;;;23.47;43.64;97584.79;115738;1188;59122;-51
2021/08/21 04:52:46;;;;;;;3.60;2.20;;;;;;;23.48;43.60;97584.73;115629;1188;70597;-54
2021/08/21 04:55:17;;;;;;;4.00;2.20;;;;;;;23.51;43.84;97584.41;115662;1188;68369;-54
2021/08/21 04:57:50;;;;;;;4.20;2.50;;;;;;;23.53;44.22;97587.05;115627;1187;69444;-51
2021/08/21 05:00:21;;;;;;;4.60;2.70;;;;;;;23.57;44.34;97592.55;115712;1184;58999;-50
2021/08/21 05:03:10;;;;;;;3.70;2.90;;;;;;;23.60;44.38;97597.45;115720;1188;58692;-54
2021/08/21 05:05:47;;;;;;;4.70;3.20;;;;;;;23.63;44.38;97602.00;115766;1188;69802;-54
2021/08/21 05:08:19;;;;;;;4.90;3.20;;;;;;;23.66;44.30;97606.79;115781;1188;68443;-53
2021/08/21 05:10:55;;;;;;;4.00;3.10;;;;;;;23.69;44.21;97608.36;115654;1188;68598;-52
2021/08/21 05:13:26;;;;;;;4.30;2.70;;;;;;;23.72;44.21;97606.76;115640;1188;58791;-53
2021/08/21 05:15:58;;;;;;;4.60;3.20;;;;;;;23.75;44.00;97605.27;115733;1186;58750;-49
2021/08/21 05:19:02;;;;;;;4.10;3.00;;;;;;;23.79;43.96;97605.00;115705;1188;69774;-51
2021/08/21 05:21:47;;;;;;;4.30;3.30;;;;;;;23.82;44.02;97600.90;115734;1188;68431;-54
2021/08/21 05:24:18;;;;;;;4.30;3.20;;;;;;;23.85;43.90;97604.77;115601;1185;68221;-54
2021/08/21 05:26:49;;;;;;;4.70;3.10;;;;;;;23.88;43.89;97606.29;115698;1187;58774;-52
2021/08/21 05:29:20;;;;;;;4.20;3.10;;;;;;;23.92;43.76;97609.62;115737;1188;58775;-55
2021/08/21 05:31:55;;;;;;;3.70;2.80;;;;;;;23.95;43.71;97611.58;115734;1188;70546;-53
2021/08/21 05:34:26;;;;;;;3.50;2.50;;;;;;;23.97;43.73;97611.59;115604;1188;68898;-54
2021/08/21 05:36:56;;;;;;;3.80;2.50;;;;;;;24.00;43.65;97615.86;115637;1188;67904;-53
2021/08/21 05:39:27;;;;;;;3.80;2.80;;;;;;;24.03;43.51;97617.71;115623;1188;58761;-54
2021/08/21 05:41:59;;;;;;;4.60;2.90;;;;;;;24.06;43.58;97620.02;115792;1187;58750;-52
2021/08/21 05:44:29;;;;;;;3.20;2.30;;;;;;;24.08;43.43;97620.16;115727;1187;69932;-55
2021/08/21 05:47:00;;;;;;;3.80;2.70;;;;;;;24.11;43.46;97619.98;115651;1187;69096;-52
2021/08/21 05:49:31;;;;;;;3.70;2.60;;;;;;;24.15;43.60;97619.69;115677;1185;68466;-51
2021/08/21 05:52:02;;;;;;;3.90;2.80;;;;;;;24.19;43.57;97622.10;115704;1182;58785;-53
2021/08/21 05:54:32;;;;;;;4.70;3.10;;;;;;;24.23;43.66;97627.39;115642;1188;58744;-51
2021/08/21 05:57:08;;;;;;;3.40;3.00;;;;;;;24.27;43.49;97624.59;115569;1187;70358;-51
2021/08/21 05:59:39;;;;;;;3.80;2.70;;;;;;;24.30;43.29;97621.02;115692;1188;69237;-52
2021/08/21 06:02:09;;;;;;;3.30;2.60;;;;;;;24.33;43.22;97620.29;115705;1188;68687;-53
2021/08/21 06:04:41;;;;;;;3.70;2.60;;;;;;;24.36;43.22;97620.24;115769;1188;58802;-54
2021/08/21 06:07:11;;;;;;;4.70;2.80;;;;;;;24.39;43.01;97622.73;115711;1187;58714;-54
2021/08/21 06:09:42;;;;;;;3.00;2.20;;;;;;;24.42;43.07;97623.47;115495;1186;68991;-52
2021/08/21 06:12:13;;;;;;;3.40;2.90;;;;;;;24.46;42.92;97626.94;115635;1186;69016;-50
2021/08/21 06:14:44;;;;;;;3.50;2.70;;;;;;;24.47;42.90;97624.58;115678;1188;68489;-51
2021/08/21 06:17:15;;;;;;;4.20;2.40;;;;;;;24.49;42.83;97625.07;115662;1182;58777;-51
2021/08/21 06:19:46;;;;;;;3.50;2.50;;;;;;;24.50;42.79;97625.67;115715;1188;58768;-53
2021/08/21 06:22:16;;;;;;;3.50;2.60;;;;;;;24.50;42.71;97628.18;115675;1188;70551;-52
2021/08/21 06:24:47;;;;;;;3.60;2.60;;;;;;;24.50;42.64;97628.73;115734;1188;69146;-51
2021/08/21 06:27:18;;;;;;;3.00;2.50;;;;;;;24.50;42.62;97634.09;115641;1188;69258;-51
2021/08/21 06:29:50;;;;;;;3.30;2.40;;;;;;;24.49;42.47;97631.65;115710;1187;58747;-51
2021/08/21 06:32:25;;;;;;;4.50;2.40;;;;;;;24.49;42.50;97636.14;115643;1188;58657;-51
2021/08/21 06:35:04;;;;;;;2.80;2.40;;;;;;;24.48;42.40;97631.73;115616;1188;70540;-52
2021/08/21 06:37:36;;;;;;;3.60;2.40;;;;;;;24.48;42.50;97628.89;115683;1188;68713;-51
2021/08/21 06:40:07;;;;;;;3.50;2.50;;;;;;;24.49;42.47;97628.52;115696;1188;69235;-53
2021/08/21 06:42:38;;;;;;;4.10;2.50;;;;;;;24.50;42.44;97629.82;115719;1188;58834;-52
2021/08/21 06:45:35;;;;;;;3.40;2.50;;;;;;;24.50;42.40;97634.60;115690;1188;58733;-50
2021/08/21 06:48:07;;;;;;;3.10;2.30;;;;;;;24.52;42.41;97629.50;115697;1187;69812;-54
2021/08/21 06:50:38;;;;;;;3.20;2.40;;;;;;;24.54;42.41;97631.50;115615;1185;68575;-51
2021/08/21 06:53:08;;;;;;;4.40;2.70;;;;;;;24.57;42.36;97636.70;115726;1187;69087;-50
2021/08/21 06:55:39;;;;;;;3.30;2.60;;;;;;;24.60;42.41;97639.89;115620;1188;58796;-52
2021/08/21 06:58:10;;;;;;;3.90;2.40;;;;;;;24.62;42.35;97642.15;115711;1188;58787;-51
2021/08/21 07:00:45;;;;;;;3.00;2.70;;;;;;;24.63;42.10;97640.39;115698;1188;70379;-54
2021/08/21 07:03:15;;;;;;;3.40;2.40;;;;;;;24.62;42.14;97641.70;115725;1188;68290;-52
2021/08/21 07:05:46;;;;;;;5.60;2.50;;;;;;;24.62;42.02;97645.52;115724;1188;69050;-55
2021/08/21 07:08:16;;;;;;;9.30;4.30;;;;;;;24.61;42.26;97648.27;115613;1188;58703;-53
2021/08/21 07:10:46;;;;;;;8.30;3.70;;;;;;;24.61;42.54;97652.23;115650;1188;58677;-52
2021/08/21 07:13:16;;;;;;;6.20;3.40;;;;;;;24.61;42.42;97649.88;115649;1188;69750;-53
2021/08/21 07:15:54;;;;;;;7.60;3.60;;;;;;;24.63;42.50;97653.08;115578;1188;69179;-52
2021/08/21 07:18:25;;;;;;;8.30;3.50;;;;;;;24.64;42.55;97647.55;115606;1188;69491;-52
2021/08/21 07:20:56;;;;;;;7.10;3.20;;;;;;;24.67;42.92;97648.46;115574;1188;58767;-54
2021/08/21 07:23:26;;;;;;;6.60;3.10;;;;;;;24.69;43.26;97646.96;115559;1188;58673;-55
2021/08/21 07:25:57;;;;;;;5.20;2.70;;;;;;;24.71;43.07;97649.12;115644;1187;70373;-56
2021/08/21 07:28:26;;;;;;;;;;;;;;;24.74;42.95;97653.05;115517;1188;69066;-51
2021/08/21 07:30:55;;;;;;;5.50;2.70;;;;;;;24.77;42.80;97655.57;115650;1187;69273;-53
2021/08/21 07:33:25;;;;;;;4.20;3.00;;;;;;;24.80;42.65;97652.84;115805;1188;58736;-54
2021/08/21 07:35:56;;;;;;;4.80;2.70;;;;;;;24.83;42.49;97651.23;115619;1188;58755;-53
2021/08/21 07:38:27;;;;;;;6.10;2.70;;;;;;;24.87;42.38;97652.36;115852;1185;69793;-53
2021/08/21 07:40:58;;;;;;;6.30;2.80;;;;;;;24.91;42.28;97651.58;115676;1188;68553;-52
2021/08/21 07:43:28;;;;;;;4.20;3.00;;;;;;;24.95;42.21;97652.56;115852;1188;68345;-54
2021/08/21 07:46:00;;;;;;;4.70;2.80;;;;;;;24.98;42.20;97653.28;115856;1188;58744;-63
2021/08/21 07:48:33;;;;;;;5.10;2.50;;;;;;;25.01;42.09;97654.48;115933;1185;58735;-58
2021/08/21 07:51:05;;;;;;;5.70;2.50;;;;;;;25.05;42.12;97660.55;115716;1188;69659;-57
2021/08/21 07:53:35;;;;;;;3.80;2.80;;;;;;;25.08;41.96;97660.30;115749;1188;68666;-59
2021/08/21 07:56:06;;;;;;;4.50;2.80;;;;;;;25.11;42.00;97662.23;115893;1188;69658;-62
2021/08/21 07:58:37;;;;;;;3.20;2.70;;;;;;;25.14;42.04;97663.81;115862;1188;58717;-62
2021/08/21 08:01:08;;;;;;;4.50;2.60;;;;;;;25.19;41.95;97668.20;115850;1188;58767;-63
2021/08/21 08:03:39;;;;;;;3.60;2.70;;;;;;;25.23;41.75;97667.35;115960;1184;68608;-62
2021/08/21 08:06:09;;;;;;;3.10;2.30;;;;;;;25.26;41.85;97671.23;115904;1187;68426;-64
2021/08/21 08:08:40;;;;;;;4.00;2.60;;;;;;;25.29;41.73;97674.93;115746;1188;69171;-60
2021/08/21 08:11:11;;;;;;;4.40;2.70;;;;;;;25.32;41.65;97675.75;115978;1187;58687;-66
2021/08/21 08:13:41;;;;;;;4.20;2.60;;;;;;;25.35;41.55;97679.52;115830;1185;58732;-65
2021/08/21 08:16:12;;;;;;;3.40;2.50;;;;;;;25.37;41.44;97679.35;115793;1188;70548;-61
2021/08/21 08:18:43;;;;;;;4.20;2.60;;;;;;;25.41;41.51;97679.24;115715;1188;68877;-56
2021/08/21 08:21:15;;;;;;;5.70;3.00;;;;;;;25.45;41.48;97679.93;115780;1188;68471;-58
2021/08/21 08:23:46;;;;;;;3.60;2.80;;;;;;;25.49;41.45;97678.21;115766;1188;58748;-58
2021/08/21 08:26:17;;;;;;;4.00;2.50;;;;;;;25.53;41.64;97679.05;115714;1185;58782;-65
2021/08/21 08:28:48;;;;;;;4.20;2.70;;;;;;;25.57;41.82;97679.24;115789;1188;69550;-61
2021/08/21 08:31:19;;;;;;;4.30;3.10;;;;;;;25.61;42.05;97676.95;115774;1185;69145;-54
2021/08/21 08:33:49;;;;;;;4.20;3.00;;;;;;;25.65;41.92;97678.80;115613;1188;67827;-54
2021/08/21 08:36:20;;;;;;;4.40;2.80;;;;;;;25.66;41.64;97683.06;115554;1184;58766;-49
2021/08/21 08:38:50;;;;;;;3.90;2.80;;;;;;;25.67;41.57;97679.19;115647;1188;58791;-53
2021/08/21 08:41:23;;;;;;;3.40;2.70;;;;;;;25.68;41.67;97678.16;115671;1188;70557;-53
2021/08/21 08:43:54;;;;;;;5.00;2.90;;;;;;;25.69;41.48;97677.87;115651;1188;69206;-54
2021/08/21 08:46:25;;;;;;;4.30;3.00;;;;;;;25.70;41.46;97680.43;115804;1188;67303;-54
2021/08/21 08:49:02;;;;;;;4.00;3.00;;;;;;;25.71;41.61;97681.23;115770;1187;59130;-52
2021/08/21 08:51:33;;;;;;;4.20;3.00;;;;;;;25.72;41.61;97679.04;115777;1186;58767;-52
2021/08/21 08:54:03;;;;;;;4.70;3.20;;;;;;;25.75;41.81;97681.90;115820;1186;70548;-52
2021/08/21 08:56:34;;;;;;;3.90;2.90;;;;;;;25.78;41.90;97676.20;115760;1187;69111;-52
2021/08/21 08:59:05;;;;;;;6.50;3.40;;;;;;;25.81;41.90;97676.50;115747;1187;68344;-56
2021/08/21 09:01:40;;;;;;;4.90;3.10;;;;;;;25.84;41.89;97677.99;115723;1187;58764;-54
2021/08/21 09:04:23;;;;;;;3.80;2.90;;;;;;;25.88;41.75;97675.61;115812;1187;58749;-52
2021/08/21 09:06:54;;;;;;;4.50;3.00;;;;;;;25.90;41.50;97676.58;115752;1187;70557;-53
2021/08/21 09:09:26;;;;;;;3.90;3.20;;;;;;;25.92;41.40;97675.74;115834;1187;69190;-52
2021/08/21 09:11:57;;;;;;;3.90;2.90;;;;;;;25.94;41.47;97676.67;115815;1187;68426;-50
2021/08/21 09:14:31;;;;;;;5.10;3.00;;;;;;;25.94;41.41;97675.36;115853;1181;58819;-52
2021/08/21 09:17:21;;;;;;;5.20;3.80;;;;;;;25.95;41.39;97676.91;115845;1186;58735;-51
2021/08/21 09:20:06;;;;;;;3.90;3.10;;;;;;;25.94;41.37;97673.20;115797;1188;70577;-51
2021/08/21 09:22:36;;;;;;;4.30;3.20;;;;;;;25.94;41.28;97671.27;115845;1187;68273;-53
2021/08/21 09:25:10;;;;;;;4.20;2.90;;;;;;;25.94;41.32;97669.05;115770;1187;68546;-54
2021/08/21 09:27:41;;;;;;;3.80;2.90;;;;;;;25.95;41.35;97669.34;115807;1187;58778;-48
2021/08/21 09:30:17;;;;;;;3.20;2.80;;;;;;;25.96;41.30;97672.42;115753;1187;58728;-53
2021/08/21 09:32:48;;;;;;;4.20;3.00;;;;;;;25.97;41.25;97672.55;115876;1186;70952;-50
2021/08/21 09:35:21;;;;;;;5.20;3.10;;;;;;;25.98;41.27;97673.39;115720;1187;68321;-54
2021/08/21 09:37:57;;;;;;;3.60;2.80;;;;;;;25.99;41.21;97671.28;115853;1187;68432;-52
2021/08/21 09:40:33;;;;;;;4.60;2.80;;;;;;;26.02;41.21;97674.48;115706;1187;58770;-53
2021/08/21 09:43:07;;;;;;;3.70;2.60;;;;;;;26.05;41.18;97672.69;115804;1182;58752;-50
2021/08/21 09:45:39;;;;;;;3.90;3.10;;;;;;;26.07;41.13;97675.59;115727;1187;70141;-54
2021/08/21 09:48:10;;;;;;;3.70;2.80;;;;;;;26.10;41.17;97675.04;115812;1186;69266;-55
2021/08/21 09:50:42;;;;;;;3.90;3.10;;;;;;;26.13;41.16;97671.92;115779;1182;68824;-49
2021/08/21 09:53:14;;;;;;;4.30;3.40;;;;;;;26.18;41.16;97671.59;115739;1186;58728;-52
2021/08/21 09:55:44;;;;;;;3.60;2.80;;;;;;;26.23;41.67;97673.78;115727;1184;58748;-55
2021/08/21 09:58:17;;;;;;;5.10;3.30;;;;;;;26.28;41.52;97676.59;115761;1187;69783;-50
2021/08/21 10:00:54;;;;;;;4.00;3.00;;;;;;;26.32;41.31;97673.63;115787;1188;68426;-53
2021/08/21 10:03:25;;;;;;;3.90;2.90;;;;;;;26.37;41.01;97673.91;115770;1187;68179;-51
2021/08/21 10:05:57;;;;;;;4.90;3.00;;;;;;;26.40;41.01;97668.02;115740;1185;59162;-51
2021/08/21 10:08:28;;;;;;;3.30;2.50;;;;;;;26.46;41.14;97669.74;115804;1187;58759;-51
2021/08/21 10:10:59;;;;;;;4.40;2.60;;;;;;;26.50;41.01;97669.04;115822;1187;70566;-51
2021/08/21 10:13:33;;;;;;;3.70;2.70;;;;;;;26.53;40.87;97669.45;115766;1187;68961;-54
2021/08/21 10:16:09;;;;;;;4.30;3.00;;;;;;;26.55;40.80;97668.30;115761;1184;68449;-53
2021/08/21 10:18:43;;;;;;;4.80;2.90;;;;;;;26.57;40.72;97671.52;115782;1187;58743;-50
2021/08/21 10:21:15;;;;;;;4.00;2.50;;;;;;;26.59;40.59;97670.12;115855;1181;58698;-53
2021/08/21 10:23:48;;;;;;;3.70;3.00;;;;;;;26.59;40.55;97668.42;115855;1187;70930;-48
2021/08/21 10:26:32;;;;;;;3.90;2.60;;;;;;;26.60;40.44;97666.69;115836;1186;68498;-54
2021/08/21 10:29:11;;;;;;;3.30;2.70;;;;;;;26.61;40.33;97667.89;115787;1187;68562;-53
2021/08/21 10:31:44;;;;;;;4.30;2.50;;;;;;;26.60;40.36;97667.88;115803;1187;58709;-53
2021/08/21 10:34:16;;;;;;;5.10;2.70;;;;;;;26.61;40.29;97668.98;115770;1184;58711;-52
2021/08/21 10:36:58;;;;;;;3.60;2.70;;;;;;;26.62;40.21;97665.70;115778;1185;69620;-51
2021/08/21 10:39:32;;;;;;;3.10;2.60;;;;;;;26.62;40.23;97665.34;115819;1187;68447;-54
2021/08/21 10:42:24;;;;;;;2.90;2.30;;;;;;;26.63;40.14;97662.95;115744;1187;69245;-54
2021/08/21 10:44:56;;;;;;;4.10;2.60;;;;;;;26.63;40.11;97660.64;115757;1181;58760;-54
2021/08/21 10:47:34;;;;;;;3.50;2.50;;;;;;;26.63;40.05;97665.54;115761;1187;58733;-52
2021/08/21 10:50:17;;;;;;;4.20;3.00;;;;;;;26.63;40.09;97658.41;115816;1187;69752;-52
2021/08/21 10:52:53;;;;;;;5.70;2.70;;;;;;;26.64;40.21;97660.17;115741;1187;67673;-54
2021/08/21 10:55:25;;;;;;;5.60;2.70;;;;;;;26.66;40.15;97660.70;115716;1187;68264;-52
2021/08/21 10:58:02;;;;;;;2.80;2.40;;;;;;;26.68;39.94;97659.52;115704;1185;58839;-54
2021/08/21 11:00:39;;;;;;;3.60;2.40;;;;;;;26.71;39.84;97654.48;115760;1185;58786;-52
2021/08/21 11:03:14;;;;;;;3.30;2.50;;;;;;;26.74;39.98;97653.92;115720;1187;70605;-53
2021/08/21 11:05:52;;;;;;;5.60;3.50;;;;;;;26.77;40.00;97652.78;115830;1187;68694;-53
2021/08/21 11:08:30;;;;;;;5.40;4.20;;;;;;;26.80;40.07;97654.99;115791;1182;68230;-55
2021/08/21 11:11:28;;;;;;;6.00;3.40;;;;;;;26.83;40.12;97657.67;115821;1186;58769;-54
2021/08/21 11:14:11;;;;;;;3.90;2.70;;;;;;;26.85;40.03;97651.82;115797;1186;58735;-53
2021/08/21 11:16:54;;;;;;;4.40;3.20;;;;;;;26.87;40.03;97650.52;115807;1187;71004;-50
2021/08/21 11:19:27;;;;;;;5.30;2.80;;;;;;;26.88;40.06;97647.46;115815;1187;68445;-54
2021/08/21 11:22:12;;;;;;;4.80;3.00;;;;;;;26.89;40.02;97644.98;115774;1187;68267;-52
2021/08/21 11:25:00;;;;;;;5.30;3.10;;;;;;;26.89;39.97;97641.94;115757;1187;58760;-51
2021/08/21 11:27:36;;;;;;;4.30;3.00;;;;;;;26.90;39.96;97647.02;115840;1184;58736;-52
2021/08/21 11:30:15;;;;;;;7.20;2.90;;;;;;;26.90;39.97;97652.54;115757;1187;70481;-54
2021/08/21 11:33:03;;;;;;;3.60;2.40;;;;;;;26.90;39.82;97648.66;115755;1187;68476;-54
2021/08/21 11:35:49;;;;;;;12.00;4.50;;;;;;;26.90;39.82;97652.08;115766;1187;69223;-55
2021/08/21 11:38:31;;;;;;;14.00;5.40;;;;;;;26.88;39.90;97643.50;115791;1186;58749;-49
2021/08/21 11:41:12;;;;;;;8.40;4.40;;;;;;;26.88;39.99;97644.30;115775;1187;58740;-51
2021/08/21 11:43:43;;;;;;;7.70;3.80;;;;;;;26.87;40.06;97642.40;115697;1185;69832;-52
2021/08/21 11:46:24;;;;;;;10.60;4.60;;;;;;;26.87;39.99;97641.58;115772;1182;68978;-52
2021/08/21 11:49:06;;;;;;;8.10;4.20;;;;;;;26.86;39.96;97640.38;115751;1187;68545;-50
2021/08/21 11:51:39;;;;;;;7.10;3.80;;;;;;;26.87;40.06;97640.30;115804;1187;58718;-52
2021/08/21 11:54:11;;;;;;;7.10;3.70;;;;;;;26.89;40.07;97640.33;115662;1186;58741;-53
2021/08/21 11:57:00;;;;;;;6.90;3.90;;;;;;;26.92;40.02;97639.45;115601;1187;70420;-52